Adair, Missouri
Current Conditions -  °F | °C
As of 1:55 AM on Friday 31 Oct 2014 (Local Time) from KIRK Reporting Station
Overcast Overcast  
Wind Chill: 43°   Ceiling: 9000
Heat Index: 49°   Visibility: 10mi
Dew Point: 38°   Wind: 17mph
Humidity: 66%   Direction: 350°N
Pressure: 30.19"   Gusts: 29mph
Location:  40.2186°N, 92.4328°W
Report Text: KIRK 310655Z AUTO 35015G25KT 10SM SCT060 OVC090 09/03 A3019 RMK AO2 SLP226 T00940033
Loading
Personal Weather Stations






























Interactive Weather Map New forecast layout! Learn more

10-Day Weather Forecast

Advertisements
Track Severe Weather on mobile